createdAt,value
2018-03-31T00:00:52.734Z,14.77
2018-03-31T00:01:53.304Z,14.69
2018-03-31T00:02:53.876Z,14.82
2018-03-31T00:03:54.447Z,14.79
2018-03-31T00:04:55.018Z,14.69
2018-03-31T00:05:55.589Z,14.88
2018-03-31T00:06:56.161Z,14.79
2018-03-31T00:07:56.780Z,14.82
2018-03-31T00:08:57.402Z,14.73
2018-03-31T00:09:57.973Z,14.82
2018-03-31T00:10:58.543Z,14.77
2018-03-31T00:11:59.113Z,14.85
2018-03-31T00:12:59.684Z,14.73
2018-03-31T00:14:00.255Z,14.72
2018-03-31T00:15:00.829Z,14.78
2018-03-31T00:16:01.396Z,14.73
2018-03-31T00:17:01.968Z,14.85
2018-03-31T00:18:02.538Z,14.79
2018-03-31T00:19:03.110Z,14.72
2018-03-31T00:20:03.685Z,14.84
2018-03-31T00:21:04.407Z,14.69
2018-03-31T00:22:04.977Z,14.69
2018-03-31T00:23:05.550Z,14.79
2018-03-31T00:24:06.117Z,14.79
2018-03-31T00:25:06.760Z,14.79
2018-03-31T00:26:07.360Z,14.66
2018-03-31T00:27:07.931Z,14.73
2018-03-31T00:28:08.508Z,14.79
2018-03-31T00:29:09.091Z,14.79
2018-03-31T00:30:09.690Z,14.78
2018-03-31T00:31:10.261Z,14.81
2018-03-31T00:32:10.832Z,14.72
2018-03-31T00:33:11.402Z,14.70
2018-03-31T00:34:11.973Z,14.78
2018-03-31T00:35:12.545Z,14.79
2018-03-31T00:36:13.113Z,14.72
2018-03-31T00:37:13.684Z,14.72
2018-03-31T00:38:14.255Z,14.78
2018-03-31T00:39:14.824Z,14.81
2018-03-31T00:40:15.398Z,14.77
2018-03-31T00:41:16.061Z,14.79
2018-03-31T00:42:16.682Z,14.73
2018-03-31T00:43:17.254Z,14.72
2018-03-31T00:44:17.824Z,14.82
2018-03-31T00:45:18.397Z,14.81
2018-03-31T00:46:18.967Z,14.77
2018-03-31T00:47:19.537Z,14.68
2018-03-31T00:48:20.160Z,14.69
2018-03-31T00:49:20.731Z,14.69
2018-03-31T00:50:21.304Z,14.81
2018-03-31T00:51:21.873Z,14.72
2018-03-31T00:52:22.443Z,14.72
2018-03-31T00:53:23.016Z,14.70
2018-03-31T00:54:23.586Z,14.69
2018-03-31T00:55:24.164Z,14.78
2018-03-31T00:56:24.728Z,14.77
2018-03-31T00:57:25.452Z,14.81
2018-03-31T00:58:26.065Z,14.73
2018-03-31T00:59:26.637Z,14.78
2018-03-31T01:00:27.256Z,14.77
2018-03-31T01:01:27.829Z,14.72
2018-03-31T01:02:28.403Z,14.78
2018-03-31T01:03:28.970Z,14.70
2018-03-31T01:04:29.540Z,14.70
2018-03-31T01:05:30.162Z,14.68
2018-03-31T01:06:30.733Z,14.65
2018-03-31T01:07:31.305Z,14.68
2018-03-31T01:08:31.883Z,14.72
2018-03-31T01:09:32.449Z,14.70
2018-03-31T01:10:33.061Z,14.68
2018-03-31T01:11:33.632Z,14.65
2018-03-31T01:12:34.204Z,14.65
2018-03-31T01:13:34.772Z,14.54
2018-03-31T01:14:49.107Z,14.59
2018-03-31T01:15:49.728Z,14.62
2018-03-31T01:16:51.310Z,14.60
2018-03-31T01:17:51.887Z,14.59
2018-03-31T01:18:52.451Z,14.58
2018-03-31T01:19:53.024Z,14.62
2018-03-31T01:20:53.596Z,14.60
2018-03-31T01:21:54.166Z,14.55
2018-03-31T01:22:54.790Z,14.65
2018-03-31T01:23:55.357Z,14.58
2018-03-31T01:24:55.982Z,14.58
2018-03-31T01:25:56.555Z,14.53
2018-03-31T01:26:57.123Z,14.58
2018-03-31T01:27:57.697Z,14.55
2018-03-31T01:28:58.263Z,14.50
2018-03-31T01:29:58.833Z,14.54
2018-03-31T01:30:59.404Z,14.45
2018-03-31T01:32:00.023Z,14.51
2018-03-31T01:33:00.596Z,14.54
2018-03-31T01:34:01.163Z,14.53
2018-03-31T01:35:01.734Z,14.60
2018-03-31T01:36:02.303Z,14.53
2018-03-31T01:37:02.874Z,14.54
2018-03-31T01:38:03.445Z,14.48
2018-03-31T01:39:04.015Z,14.55
2018-03-31T01:40:04.584Z,14.54
2018-03-31T01:41:05.157Z,14.50
2018-03-31T01:42:05.730Z,14.59
2018-03-31T01:43:06.305Z,14.48
2018-03-31T01:44:06.922Z,14.54
2018-03-31T01:45:07.493Z,14.62
2018-03-31T01:46:21.828Z,14.63
2018-03-31T01:47:22.449Z,14.63
2018-03-31T01:48:23.068Z,14.53
2018-03-31T01:49:23.639Z,14.53
2018-03-31T01:50:24.209Z,14.60
2018-03-31T01:51:24.781Z,14.54
2018-03-31T01:52:25.355Z,14.54
2018-03-31T01:53:25.923Z,14.60
2018-03-31T01:54:26.493Z,14.55
2018-03-31T01:55:27.067Z,14.54
2018-03-31T01:56:27.638Z,14.58
2018-03-31T01:57:28.207Z,14.50
2018-03-31T01:58:28.780Z,14.53
2018-03-31T01:59:29.350Z,14.54
2018-03-31T02:00:29.920Z,14.58
2018-03-31T02:01:30.490Z,14.55
2018-03-31T02:02:31.112Z,14.53
2018-03-31T02:03:31.683Z,14.53
2018-03-31T02:04:32.305Z,14.50
2018-03-31T02:05:32.925Z,14.55
2018-03-31T02:06:33.520Z,14.62
2018-03-31T02:07:34.068Z,14.55
2018-03-31T02:08:34.640Z,14.59
2018-03-31T02:09:35.250Z,14.59
2018-03-31T02:10:35.822Z,14.59
2018-03-31T02:11:36.392Z,14.65
2018-03-31T02:12:36.962Z,14.60
2018-03-31T02:13:37.536Z,14.65
2018-03-31T02:14:38.150Z,14.62
2018-03-31T02:15:38.720Z,14.63
2018-03-31T02:16:39.291Z,14.65
2018-03-31T02:17:39.862Z,14.55
2018-03-31T02:18:40.435Z,14.55
2018-03-31T02:19:41.005Z,14.62
2018-03-31T02:20:41.625Z,14.62
2018-03-31T02:21:42.243Z,14.59
2018-03-31T02:22:42.817Z,14.60
2018-03-31T02:23:43.390Z,14.63
2018-03-31T02:24:44.004Z,14.65
2018-03-31T02:25:44.574Z,14.68
2018-03-31T02:26:45.142Z,14.73
2018-03-31T02:27:45.765Z,14.65
2018-03-31T02:28:46.335Z,14.68
2018-03-31T02:29:46.906Z,14.68
2018-03-31T02:30:47.481Z,14.65
2018-03-31T02:31:48.100Z,14.79
2018-03-31T02:32:48.668Z,14.69
2018-03-31T02:33:49.239Z,14.82
2018-03-31T02:34:49.810Z,14.68
2018-03-31T02:35:50.431Z,14.79
2018-03-31T02:36:50.999Z,14.77
2018-03-31T02:37:51.568Z,14.78
2018-03-31T02:38:52.191Z,14.78
2018-03-31T02:39:52.763Z,14.81
2018-03-31T02:40:53.334Z,14.78
2018-03-31T02:41:53.904Z,14.84
2018-03-31T02:42:54.478Z,14.79
2018-03-31T02:43:55.046Z,14.81
2018-03-31T02:44:55.631Z,14.85
2018-03-31T02:45:56.229Z,14.73
2018-03-31T02:46:56.851Z,14.70
2018-03-31T02:47:57.421Z,14.81
2018-03-31T02:48:57.993Z,14.82
2018-03-31T02:49:58.564Z,14.78
2018-03-31T02:50:59.136Z,14.84
2018-03-31T02:51:59.705Z,14.69
2018-03-31T02:53:00.278Z,14.77
2018-03-31T02:54:00.849Z,14.65
2018-03-31T02:55:01.620Z,14.72
2018-03-31T02:56:02.241Z,14.69
2018-03-31T02:57:02.811Z,14.70
2018-03-31T02:58:03.383Z,14.68
2018-03-31T02:59:03.954Z,14.65
2018-03-31T03:00:04.525Z,14.65
2018-03-31T03:01:05.097Z,14.65
2018-03-31T03:02:05.716Z,14.65
2018-03-31T03:03:06.288Z,14.66
2018-03-31T03:04:06.859Z,14.66
2018-03-31T03:05:07.436Z,14.66
2018-03-31T03:06:08.000Z,14.70
2018-03-31T03:07:08.570Z,14.77
2018-03-31T03:08:09.143Z,14.77
2018-03-31T03:09:09.712Z,14.70
2018-03-31T03:10:10.281Z,14.66
2018-03-31T03:11:10.853Z,14.66
2018-03-31T03:12:11.422Z,14.65
2018-03-31T03:13:11.992Z,14.59
2018-03-31T03:14:12.564Z,14.65
2018-03-31T03:15:13.178Z,14.62
2018-03-31T03:16:13.747Z,14.63
2018-03-31T03:17:14.369Z,14.63
2018-03-31T03:18:14.938Z,14.63
2018-03-31T03:19:15.561Z,14.65
2018-03-31T03:20:16.181Z,14.68
2018-03-31T03:21:16.801Z,14.72
2018-03-31T03:22:17.324Z,14.69
2018-03-31T03:23:17.895Z,14.72
2018-03-31T03:24:18.467Z,14.70
2018-03-31T03:25:19.037Z,14.85
2018-03-31T03:26:19.608Z,14.68
2018-03-31T03:27:20.179Z,14.79
2018-03-31T03:28:20.751Z,14.72
2018-03-31T03:29:21.320Z,14.65
2018-03-31T03:30:21.899Z,14.69
2018-03-31T03:31:22.508Z,14.66
2018-03-31T03:32:23.128Z,14.68
2018-03-31T03:33:23.699Z,14.69
2018-03-31T03:34:24.271Z,14.68
2018-03-31T03:35:25.043Z,14.72
2018-03-31T03:36:25.656Z,14.73
2018-03-31T03:37:26.226Z,14.68
2018-03-31T03:38:26.848Z,14.65
2018-03-31T03:39:27.417Z,14.63
2018-03-31T03:40:27.989Z,14.66
2018-03-31T03:41:28.560Z,14.69
2018-03-31T03:42:29.132Z,14.66
2018-03-31T03:43:29.701Z,14.58
2018-03-31T03:44:30.272Z,14.54
2018-03-31T03:45:30.845Z,14.68
2018-03-31T03:46:31.417Z,14.63
2018-03-31T03:47:32.028Z,14.66
2018-03-31T03:48:32.797Z,14.63
2018-03-31T03:49:33.370Z,14.62
2018-03-31T03:50:33.941Z,14.63
2018-03-31T03:51:34.510Z,14.65
2018-03-31T03:52:35.083Z,14.66
2018-03-31T03:53:35.702Z,14.59
2018-03-31T03:54:36.276Z,14.65
2018-03-31T03:55:36.855Z,14.68
2018-03-31T03:56:37.456Z,14.66
2018-03-31T03:57:38.028Z,14.68
2018-03-31T03:58:38.650Z,14.63
2018-03-31T03:59:39.228Z,14.65
2018-03-31T04:00:39.849Z,14.62
2018-03-31T04:01:40.421Z,14.58
2018-03-31T04:02:40.991Z,14.63
2018-03-31T04:03:41.563Z,14.55
2018-03-31T04:04:42.183Z,14.59
2018-03-31T04:05:42.751Z,14.66
2018-03-31T04:06:43.327Z,14.62
2018-03-31T04:07:43.934Z,14.66
2018-03-31T04:08:44.555Z,14.63
2018-03-31T04:09:45.153Z,14.59
2018-03-31T04:10:45.697Z,14.58
2018-03-31T04:11:46.269Z,14.60
2018-03-31T04:12:46.841Z,14.55
2018-03-31T04:13:47.412Z,14.60
2018-03-31T04:14:47.982Z,14.43
2018-03-31T04:15:48.553Z,14.53
2018-03-31T04:16:49.121Z,14.50
2018-03-31T04:17:49.692Z,14.55
2018-03-31T04:18:50.315Z,14.58
2018-03-31T04:19:50.929Z,14.55
2018-03-31T04:20:51.500Z,14.53
2018-03-31T04:21:52.071Z,14.54
2018-03-31T04:22:52.642Z,14.55
2018-03-31T04:23:53.212Z,14.53
2018-03-31T04:24:53.785Z,14.59
2018-03-31T04:25:54.408Z,14.53
2018-03-31T04:26:54.975Z,14.53
2018-03-31T04:27:55.546Z,14.58
2018-03-31T04:28:56.116Z,14.59
2018-03-31T04:29:56.688Z,14.60
2018-03-31T04:30:57.257Z,14.59
2018-03-31T04:31:57.828Z,14.53
2018-03-31T04:32:58.399Z,14.51
2018-03-31T04:33:58.970Z,14.53
2018-03-31T04:34:59.541Z,14.55
2018-03-31T04:36:00.112Z,14.55
2018-03-31T04:37:00.737Z,14.54
2018-03-31T04:38:01.307Z,14.62
2018-03-31T04:39:01.887Z,14.58
2018-03-31T04:40:02.490Z,14.53
2018-03-31T04:41:03.062Z,14.59
2018-03-31T04:42:03.633Z,14.54
2018-03-31T04:43:04.210Z,14.65
2018-03-31T04:44:04.826Z,14.55
2018-03-31T04:45:05.396Z,14.59
2018-03-31T04:46:05.969Z,14.53
2018-03-31T04:47:06.582Z,14.62
2018-03-31T04:48:07.154Z,14.62
2018-03-31T04:49:07.775Z,14.62
2018-03-31T04:50:08.345Z,14.60
2018-03-31T04:51:08.916Z,14.58
2018-03-31T04:52:09.536Z,14.60
2018-03-31T04:53:10.109Z,14.62
2018-03-31T04:54:10.680Z,14.66
2018-03-31T04:55:11.401Z,14.63
2018-03-31T04:56:11.971Z,14.65
2018-03-31T04:57:12.543Z,14.59
2018-03-31T04:58:13.137Z,14.65
2018-03-31T04:59:13.683Z,14.69
2018-03-31T05:00:14.304Z,14.60
2018-03-31T05:01:14.874Z,14.68
2018-03-31T05:02:15.447Z,14.65
2018-03-31T05:03:16.018Z,14.62
2018-03-31T05:04:16.588Z,14.58
2018-03-31T05:05:17.186Z,14.55
2018-03-31T05:06:17.730Z,14.65
2018-03-31T05:07:18.302Z,14.63
2018-03-31T05:08:18.874Z,14.60
2018-03-31T05:09:19.444Z,14.62
2018-03-31T05:10:20.067Z,14.65
2018-03-31T05:11:20.636Z,14.60
2018-03-31T05:12:21.207Z,14.63
2018-03-31T05:13:21.778Z,14.63
2018-03-31T05:14:22.399Z,14.69
2018-03-31T05:15:22.970Z,14.60
2018-03-31T05:16:23.540Z,14.69
2018-03-31T05:17:24.112Z,14.62
2018-03-31T05:18:24.683Z,14.60
2018-03-31T05:19:25.404Z,14.63
2018-03-31T05:20:25.974Z,14.65
2018-03-31T05:21:26.547Z,14.60
2018-03-31T05:22:27.117Z,14.63
2018-03-31T05:23:27.688Z,14.60
2018-03-31T05:24:28.258Z,14.55
2018-03-31T05:25:28.829Z,14.65
2018-03-31T05:26:29.399Z,14.60
2018-03-31T05:27:29.971Z,14.63
2018-03-31T05:28:30.592Z,14.60
2018-03-31T05:29:31.165Z,14.58
2018-03-31T05:30:31.935Z,14.62
2018-03-31T05:31:32.506Z,14.60
2018-03-31T05:32:33.077Z,14.59
2018-03-31T05:33:33.696Z,14.66
2018-03-31T05:34:34.267Z,14.65
2018-03-31T05:35:34.837Z,14.60
2018-03-31T05:36:35.408Z,14.60
2018-03-31T05:37:35.977Z,14.66
2018-03-31T05:38:36.547Z,14.65
2018-03-31T05:39:37.119Z,14.63
2018-03-31T05:40:37.790Z,14.66
2018-03-31T05:41:38.358Z,14.66
2018-03-31T05:42:38.930Z,14.69
2018-03-31T05:43:39.501Z,14.68
2018-03-31T05:44:40.072Z,14.77
2018-03-31T05:45:40.645Z,14.69
2018-03-31T05:46:41.217Z,14.77
2018-03-31T05:47:41.788Z,14.77
2018-03-31T05:48:42.358Z,14.79
2018-03-31T05:49:43.011Z,14.85
2018-03-31T05:50:43.552Z,14.82
2018-03-31T05:51:44.124Z,14.81
2018-03-31T05:52:44.735Z,14.79
2018-03-31T05:53:45.506Z,14.79
2018-03-31T05:54:46.077Z,14.81
2018-03-31T05:55:46.647Z,14.79
2018-03-31T05:56:47.220Z,14.82
2018-03-31T05:57:47.790Z,14.79
2018-03-31T05:58:48.360Z,14.79
2018-03-31T05:59:48.931Z,14.85
2018-03-31T06:00:49.501Z,14.78
2018-03-31T06:01:50.070Z,14.73
2018-03-31T06:02:50.642Z,14.72
2018-03-31T06:03:51.214Z,14.77
2018-03-31T06:04:51.835Z,14.82
2018-03-31T06:05:52.406Z,14.77
2018-03-31T06:06:53.027Z,14.82
2018-03-31T06:07:53.598Z,14.85
2018-03-31T06:08:54.218Z,14.79
2018-03-31T06:09:54.787Z,14.81
2018-03-31T06:10:55.356Z,14.78
2018-03-31T06:11:55.982Z,14.72
2018-03-31T06:12:56.546Z,14.79
2018-03-31T06:13:57.115Z,14.70
2018-03-31T06:14:57.688Z,14.78
2018-03-31T06:16:03.312Z,14.70
2018-03-31T06:17:03.882Z,14.73
2018-03-31T06:18:04.453Z,14.72
2018-03-31T06:19:05.024Z,14.73
2018-03-31T06:20:05.593Z,14.78
2018-03-31T06:21:06.204Z,14.77
2018-03-31T06:22:06.735Z,14.73
2018-03-31T06:23:07.355Z,14.70
2018-03-31T06:24:07.927Z,14.69
2018-03-31T06:25:08.499Z,14.72
2018-03-31T06:26:09.070Z,14.81
2018-03-31T06:27:09.695Z,14.81
2018-03-31T06:28:10.263Z,14.81
2018-03-31T06:29:10.835Z,14.79
2018-03-31T06:30:11.407Z,14.82
2018-03-31T06:31:11.977Z,14.77
2018-03-31T06:32:12.549Z,14.81
2018-03-31T06:33:13.120Z,14.79
2018-03-31T06:34:13.742Z,14.78
2018-03-31T06:35:14.312Z,14.78
2018-03-31T06:36:14.881Z,14.73
2018-03-31T06:37:15.454Z,14.84
2018-03-31T06:38:16.022Z,14.79
2018-03-31T06:39:16.601Z,14.77
2018-03-31T06:40:17.166Z,14.72
2018-03-31T06:41:17.750Z,14.78
2018-03-31T06:42:18.313Z,14.82
2018-03-31T06:43:19.031Z,14.77
2018-03-31T06:44:19.652Z,14.82
2018-03-31T06:45:20.220Z,14.79
2018-03-31T06:46:20.791Z,14.77
2018-03-31T06:47:21.385Z,14.79
2018-03-31T06:48:21.931Z,14.84
2018-03-31T06:49:22.505Z,14.79
2018-03-31T06:50:23.072Z,14.78
2018-03-31T06:51:23.645Z,14.72
2018-03-31T06:52:24.214Z,14.72
2018-03-31T06:53:24.785Z,14.78
2018-03-31T06:54:25.359Z,14.72
2018-03-31T06:55:25.930Z,14.82
2018-03-31T06:56:26.499Z,14.77
2018-03-31T06:57:27.118Z,14.82
2018-03-31T06:58:27.690Z,14.70
2018-03-31T06:59:28.263Z,14.68
2018-03-31T07:00:28.874Z,14.77
2018-03-31T07:01:29.496Z,14.78
2018-03-31T07:02:30.064Z,14.81
2018-03-31T07:03:30.685Z,14.78
2018-03-31T07:04:31.256Z,14.81
2018-03-31T07:05:31.877Z,14.73
2018-03-31T07:06:32.450Z,14.81
2018-03-31T07:07:33.021Z,14.78
2018-03-31T07:08:33.592Z,14.72
2018-03-31T07:09:34.161Z,14.79
2018-03-31T07:10:34.732Z,14.81
2018-03-31T07:11:35.305Z,14.79
2018-03-31T07:12:35.875Z,14.77
2018-03-31T07:13:36.443Z,14.72
2018-03-31T07:14:37.015Z,14.73
2018-03-31T07:15:37.587Z,14.72
2018-03-31T07:16:38.157Z,14.88
2018-03-31T07:17:38.730Z,14.78
2018-03-31T07:18:39.340Z,14.82
2018-03-31T07:19:39.959Z,14.68
2018-03-31T07:20:40.529Z,14.81
2018-03-31T07:21:41.149Z,14.78
2018-03-31T07:22:41.721Z,14.85
2018-03-31T07:23:42.366Z,14.81
2018-03-31T07:24:42.914Z,14.73
2018-03-31T07:25:43.486Z,14.85
2018-03-31T07:26:44.058Z,14.86
2018-03-31T07:27:44.628Z,14.86
2018-03-31T07:28:45.203Z,14.84
2018-03-31T07:29:45.769Z,14.86
2018-03-31T07:30:46.340Z,14.79
2018-03-31T07:31:46.911Z,14.81
2018-03-31T07:32:47.483Z,14.85
2018-03-31T07:33:48.053Z,14.85
2018-03-31T07:34:48.624Z,14.77
2018-03-31T07:35:49.252Z,14.85
2018-03-31T07:36:49.820Z,14.79
2018-03-31T07:37:50.394Z,14.77
2018-03-31T07:38:51.005Z,14.82
2018-03-31T07:39:51.628Z,14.82
2018-03-31T07:40:52.198Z,14.77
2018-03-31T07:41:52.818Z,14.86
2018-03-31T07:42:53.387Z,14.89
2018-03-31T07:43:53.960Z,14.82
2018-03-31T07:44:54.577Z,14.85
2018-03-31T07:45:55.146Z,14.81
2018-03-31T07:46:55.717Z,14.85
2018-03-31T07:47:56.290Z,14.84
2018-03-31T07:48:56.909Z,14.79
2018-03-31T07:49:57.481Z,14.82
2018-03-31T07:50:58.053Z,14.88
2018-03-31T07:52:20.395Z,14.86
2018-03-31T07:53:20.970Z,14.84
2018-03-31T07:54:21.587Z,14.84
2018-03-31T07:55:22.209Z,14.85
2018-03-31T07:56:22.781Z,14.88
2018-03-31T07:57:23.402Z,14.88
2018-03-31T07:58:23.974Z,14.86
2018-03-31T07:59:24.546Z,14.86
2018-03-31T08:00:25.116Z,14.81
2018-03-31T08:01:25.687Z,14.89
2018-03-31T08:02:26.260Z,14.85
2018-03-31T08:03:26.830Z,14.89
2018-03-31T08:04:27.399Z,14.91
2018-03-31T08:05:27.971Z,14.94
2018-03-31T08:06:28.594Z,14.94
2018-03-31T08:07:29.204Z,14.92
2018-03-31T08:08:29.774Z,14.91
2018-03-31T08:09:30.346Z,14.96
2018-03-31T08:10:30.914Z,14.97
2018-03-31T08:11:31.485Z,14.97
2018-03-31T08:12:32.105Z,14.88
2018-03-31T08:13:32.727Z,14.91
2018-03-31T08:14:33.345Z,14.89
2018-03-31T08:15:33.913Z,14.92
2018-03-31T08:16:34.490Z,14.97
2018-03-31T08:17:35.059Z,14.97
2018-03-31T08:18:35.630Z,14.91
2018-03-31T08:19:36.263Z,14.94
2018-03-31T08:20:36.774Z,14.91
2018-03-31T08:21:37.346Z,14.94
2018-03-31T08:22:37.918Z,14.86
2018-03-31T08:23:38.489Z,14.91
2018-03-31T08:24:39.095Z,14.92
2018-03-31T08:25:39.630Z,14.86
2018-03-31T08:26:40.202Z,14.99
2018-03-31T08:27:40.772Z,14.85
2018-03-31T08:28:41.343Z,14.99
2018-03-31T08:29:41.916Z,14.91
2018-03-31T08:30:42.538Z,14.92
2018-03-31T08:31:43.160Z,14.89
2018-03-31T08:32:43.881Z,14.89
2018-03-31T08:33:44.453Z,14.91
2018-03-31T08:34:45.025Z,14.97
2018-03-31T08:35:45.596Z,14.92
2018-03-31T08:36:46.167Z,14.92
2018-03-31T08:37:46.738Z,14.91
2018-03-31T08:38:47.308Z,14.92
2018-03-31T08:39:47.878Z,14.89
2018-03-31T08:40:48.454Z,14.89
2018-03-31T08:41:49.073Z,14.96
2018-03-31T08:42:49.600Z,15.04
2018-03-31T08:43:50.174Z,14.99
2018-03-31T08:44:50.753Z,15.17
2018-03-31T08:45:51.329Z,15.06
2018-03-31T08:46:51.904Z,15.19
2018-03-31T08:47:52.526Z,15.14
2018-03-31T08:48:53.099Z,15.25
2018-03-31T08:49:53.675Z,15.28
2018-03-31T08:50:54.251Z,15.39
2018-03-31T08:51:54.877Z,15.35
2018-03-31T08:52:55.452Z,15.36
2018-03-31T08:53:56.027Z,15.36
2018-03-31T08:54:56.601Z,15.43
2018-03-31T08:55:57.178Z,15.42
2018-03-31T08:56:57.752Z,15.40
2018-03-31T08:57:58.328Z,15.47
2018-03-31T08:58:58.904Z,15.47
2018-03-31T08:59:59.482Z,15.49
2018-03-31T09:01:00.263Z,15.49
2018-03-31T09:02:00.877Z,15.55
2018-03-31T09:03:01.453Z,15.62
2018-03-31T09:04:02.029Z,15.67
2018-03-31T09:05:02.657Z,15.77
2018-03-31T09:06:03.235Z,15.79
2018-03-31T09:07:03.811Z,15.79
2018-03-31T09:08:04.388Z,15.83
2018-03-31T09:09:05.006Z,15.86
2018-03-31T09:10:05.541Z,15.91
2018-03-31T09:11:06.123Z,15.86
2018-03-31T09:12:06.788Z,15.86
2018-03-31T09:13:07.365Z,15.92
2018-03-31T09:14:07.945Z,15.86
2018-03-31T09:15:08.522Z,15.90
2018-03-31T09:16:09.102Z,15.90
2018-03-31T09:17:09.677Z,15.92
2018-03-31T09:18:10.261Z,15.97
2018-03-31T09:19:10.838Z,16.04
2018-03-31T09:20:11.464Z,16.10
2018-03-31T09:21:12.044Z,16.05
2018-03-31T09:22:12.619Z,16.04
2018-03-31T09:23:13.195Z,16.05
2018-03-31T09:24:13.773Z,16.08
2018-03-31T09:25:14.400Z,16.09
2018-03-31T09:26:14.978Z,16.09
2018-03-31T09:27:15.553Z,16.10
2018-03-31T09:28:16.180Z,16.05
2018-03-31T09:29:16.757Z,16.09
2018-03-31T09:30:17.335Z,16.05
2018-03-31T09:31:17.909Z,16.08
2018-03-31T09:32:18.484Z,16.00
2018-03-31T09:33:19.059Z,16.08
2018-03-31T09:34:19.638Z,16.04
2018-03-31T09:35:20.214Z,16.05
2018-03-31T09:36:20.793Z,16.08
2018-03-31T09:37:21.371Z,16.05
2018-03-31T09:38:21.949Z,16.04
2018-03-31T09:39:22.525Z,16.04
2018-03-31T09:40:23.105Z,16.02
2018-03-31T09:41:23.833Z,16.08
2018-03-31T09:42:24.459Z,16.16
2018-03-31T09:43:25.037Z,16.31
2018-03-31T09:44:25.613Z,16.26
2018-03-31T09:45:26.190Z,16.20
2018-03-31T09:46:26.766Z,16.13
2018-03-31T09:47:27.344Z,16.16
2018-03-31T09:48:27.970Z,16.28
2018-03-31T09:49:28.546Z,16.28
2018-03-31T09:50:29.122Z,16.17
2018-03-31T09:51:29.700Z,16.23
2018-03-31T09:52:30.276Z,16.17
2018-03-31T09:53:30.854Z,16.21
2018-03-31T09:54:31.431Z,16.23
2018-03-31T09:55:32.010Z,16.15
2018-03-31T09:56:32.586Z,16.31
2018-03-31T09:57:33.165Z,16.33
2018-03-31T09:58:33.744Z,16.26
2018-03-31T09:59:34.372Z,16.31
2018-03-31T10:00:34.950Z,16.39
2018-03-31T10:01:35.528Z,16.43
2018-03-31T10:02:36.154Z,16.54
2018-03-31T10:03:36.732Z,16.65
2018-03-31T10:04:37.310Z,16.61
2018-03-31T10:05:38.088Z,16.66
2018-03-31T10:06:38.666Z,16.74
2018-03-31T10:07:39.247Z,16.66
2018-03-31T10:08:39.824Z,16.65
2018-03-31T10:09:40.404Z,16.61
2018-03-31T10:10:40.980Z,16.61
2018-03-31T10:11:41.556Z,16.57
2018-03-31T10:12:42.183Z,16.50
2018-03-31T10:13:42.761Z,16.60
2018-03-31T10:14:43.338Z,16.43
2018-03-31T10:15:43.967Z,16.41
2018-03-31T10:16:44.543Z,16.39
2018-03-31T10:17:45.173Z,16.43
2018-03-31T10:18:45.750Z,16.42
2018-03-31T10:19:46.333Z,16.60
2018-03-31T10:20:46.904Z,16.56
2018-03-31T10:21:47.483Z,16.64
2018-03-31T10:22:48.111Z,16.64
2018-03-31T10:23:48.688Z,16.61
2018-03-31T10:24:49.268Z,16.65
2018-03-31T10:25:49.846Z,16.64
2018-03-31T10:26:50.424Z,16.71
2018-03-31T10:27:51.002Z,16.71
2018-03-31T10:28:51.580Z,16.81
2018-03-31T10:29:52.159Z,16.86
2018-03-31T10:30:52.736Z,16.83
2018-03-31T10:31:53.316Z,16.81
2018-03-31T10:32:53.944Z,16.72
2018-03-31T10:33:54.521Z,16.84
2018-03-31T10:34:55.100Z,16.79
2018-03-31T10:35:55.919Z,16.69
2018-03-31T10:36:56.496Z,16.65
2018-03-31T10:37:57.076Z,16.72
2018-03-31T10:38:57.655Z,16.78
2018-03-31T10:39:58.237Z,16.81
2018-03-31T10:40:58.874Z,16.89
2018-03-31T10:41:59.446Z,16.87
2018-03-31T10:43:00.023Z,16.86
2018-03-31T10:44:00.601Z,16.96
2018-03-31T10:45:01.178Z,16.90
2018-03-31T10:46:01.758Z,16.93
2018-03-31T10:47:02.338Z,16.99
2018-03-31T10:48:02.919Z,16.97
2018-03-31T10:49:03.499Z,17.04
2018-03-31T10:50:04.079Z,16.99
2018-03-31T10:51:04.659Z,17.12
2018-03-31T10:52:05.239Z,17.04
2018-03-31T10:53:05.871Z,17.15
2018-03-31T10:54:06.503Z,17.26
2018-03-31T10:55:07.084Z,17.22
2018-03-31T10:56:07.814Z,17.33
2018-03-31T10:57:08.395Z,17.31
2018-03-31T10:58:08.975Z,17.33
2018-03-31T10:59:09.555Z,17.16
2018-03-31T11:00:10.137Z,17.16
2018-03-31T11:01:10.723Z,17.33
2018-03-31T11:02:11.304Z,17.42
2018-03-31T11:03:11.884Z,17.45
2018-03-31T11:04:12.524Z,17.54
2018-03-31T11:05:13.114Z,17.65
2018-03-31T11:06:13.706Z,17.74
2018-03-31T11:07:14.296Z,17.86
2018-03-31T11:08:14.887Z,17.87
2018-03-31T11:09:15.478Z,17.89
2018-03-31T11:10:16.069Z,17.95
2018-03-31T11:11:16.712Z,17.98
2018-03-31T11:12:17.301Z,18.08
2018-03-31T11:13:17.944Z,18.19
2018-03-31T11:14:18.536Z,18.22
2018-03-31T11:15:19.129Z,18.25
2018-03-31T11:16:19.720Z,18.34
2018-03-31T11:17:20.464Z,18.43
2018-03-31T11:18:21.056Z,18.43
2018-03-31T11:19:21.646Z,18.52
2018-03-31T11:20:22.239Z,18.58
2018-03-31T11:21:22.833Z,18.49
2018-03-31T11:22:23.424Z,18.65
2018-03-31T11:23:24.019Z,18.66
2018-03-31T11:24:24.611Z,18.73
2018-03-31T11:25:25.204Z,18.86
2018-03-31T11:26:25.802Z,18.81
2018-03-31T11:27:26.436Z,18.92
2018-03-31T11:28:27.078Z,19.00
2018-03-31T11:29:27.722Z,19.07
2018-03-31T11:30:28.415Z,19.21
2018-03-31T11:31:29.008Z,19.16
2018-03-31T11:32:29.601Z,19.24
2018-03-31T11:33:30.194Z,19.22
2018-03-31T11:34:30.838Z,19.22
2018-03-31T11:35:31.435Z,19.07
2018-03-31T11:36:32.227Z,18.96
2018-03-31T11:37:32.819Z,18.89
2018-03-31T11:39:34.990Z,18.60
2018-03-31T11:40:35.581Z,18.62
2018-03-31T11:42:37.751Z,18.58
2018-03-31T11:43:38.348Z,18.49
2018-03-31T11:44:38.975Z,18.52
2018-03-31T11:45:39.566Z,18.53
2018-03-31T11:46:40.203Z,18.50
2018-03-31T11:47:40.942Z,18.41
2018-03-31T11:48:41.539Z,18.37
2018-03-31T11:50:57.461Z,18.45
2018-03-31T11:51:58.093Z,18.41
2018-03-31T11:52:58.680Z,18.45
2018-03-31T11:54:13.032Z,18.40
2018-03-31T11:55:13.675Z,18.43
2018-03-31T11:56:14.263Z,18.40
2018-03-31T11:57:14.851Z,18.34
2018-03-31T11:58:15.439Z,18.37
2018-03-31T11:59:16.028Z,18.37
2018-03-31T12:00:16.617Z,18.34
2018-03-31T12:01:17.206Z,18.37
2018-03-31T12:02:17.794Z,18.34
2018-03-31T12:03:18.383Z,18.20
2018-03-31T12:04:18.978Z,18.07
2018-03-31T12:05:19.603Z,18.08
2018-03-31T12:06:20.240Z,18.07
2018-03-31T12:07:20.827Z,18.01
2018-03-31T12:08:21.412Z,18.05
2018-03-31T12:09:22.000Z,18.13
2018-03-31T12:10:22.636Z,18.08
2018-03-31T12:11:23.274Z,18.04
2018-03-31T12:12:23.858Z,18.16
2018-03-31T12:13:24.447Z,18.15
2018-03-31T12:14:25.035Z,18.18
2018-03-31T12:15:25.620Z,18.19
2018-03-31T12:16:26.216Z,18.40
2018-03-31T12:17:26.837Z,18.53
2018-03-31T12:18:27.424Z,18.81
2018-03-31T12:19:28.012Z,18.75
2018-03-31T12:20:28.600Z,19.18
2018-03-31T12:21:29.187Z,19.21
2018-03-31T12:22:29.777Z,19.31
2018-03-31T12:23:30.365Z,19.41
2018-03-31T12:24:30.953Z,19.41
2018-03-31T12:25:31.597Z,19.44
2018-03-31T12:26:32.182Z,19.29
2018-03-31T12:27:32.813Z,19.24
2018-03-31T12:28:47.159Z,19.18
2018-03-31T12:29:47.741Z,19.14
2018-03-31T12:30:48.321Z,19.02
2018-03-31T12:31:48.903Z,19.00
2018-03-31T12:32:49.486Z,19.04
2018-03-31T12:33:50.069Z,19.12
2018-03-31T12:34:50.810Z,19.12
2018-03-31T12:35:51.400Z,19.26
2018-03-31T12:36:51.988Z,19.40
2018-03-31T12:37:52.580Z,19.47
2018-03-31T12:38:53.174Z,19.56
2018-03-31T12:39:53.804Z,19.73
2018-03-31T12:40:54.393Z,19.92
2018-03-31T12:41:55.033Z,20.28
2018-03-31T12:42:55.626Z,20.72
2018-03-31T12:43:56.261Z,21.02
2018-03-31T12:44:56.851Z,21.12
2018-03-31T12:47:12.780Z,21.36
2018-03-31T12:49:14.997Z,20.85
2018-03-31T12:50:15.585Z,21.06
2018-03-31T12:51:16.362Z,21.30
2018-03-31T12:52:16.960Z,21.22
2018-03-31T12:53:17.524Z,21.05
2018-03-31T12:58:05.022Z,20.14
2018-03-31T12:59:05.607Z,19.99
2018-03-31T13:00:06.242Z,19.91
2018-03-31T13:01:06.866Z,19.73
2018-03-31T13:03:23.085Z,19.63
2018-03-31T13:04:24.295Z,19.54
2018-03-31T13:05:25.256Z,19.52
2018-03-31T13:06:25.840Z,19.67
2018-03-31T13:08:42.102Z,19.41
2018-03-31T13:10:58.413Z,19.14
2018-03-31T13:11:59.036Z,19.09
2018-03-31T13:13:02.657Z,19.04
2018-03-31T13:14:03.887Z,19.31
2018-03-31T13:16:20.198Z,20.25